createdAt,value
2019-01-09T00:00:51.678Z,5.10
2019-01-09T00:03:50.775Z,4.90
2019-01-09T00:06:35.357Z,4.90
2019-01-09T00:09:20.023Z,4.90
2019-01-09T00:12:04.467Z,4.90
2019-01-09T00:14:58.783Z,4.90
2019-01-09T00:17:43.316Z,5.00
2019-01-09T00:20:28.131Z,5.20
2019-01-09T00:23:12.432Z,5.20
2019-01-09T00:26:06.181Z,5.10
2019-01-09T00:28:59.810Z,5.20
2019-01-09T00:31:44.622Z,5.10
2019-01-09T00:34:29.055Z,5.10
2019-01-09T00:37:13.908Z,5.20
2019-01-09T00:39:58.419Z,5.20
2019-01-09T00:42:42.859Z,5.20
2019-01-09T00:45:36.340Z,5.20
2019-01-09T00:48:20.974Z,5.20
2019-01-09T00:51:05.386Z,5.20
2019-01-09T00:53:50.213Z,5.20
2019-01-09T00:56:34.876Z,5.10
2019-01-09T00:59:19.764Z,5.00
2019-01-09T01:02:04.064Z,4.90
2019-01-09T01:04:57.683Z,4.70
2019-01-09T01:07:42.438Z,4.60
2019-01-09T01:10:26.925Z,4.70
2019-01-09T01:13:11.948Z,4.70
2019-01-09T01:15:56.843Z,4.70
2019-01-09T01:18:41.517Z,4.80
2019-01-09T01:21:26.144Z,4.80
2019-01-09T01:24:10.716Z,4.90
2019-01-09T01:26:55.404Z,4.90
2019-01-09T01:29:39.879Z,4.80
2019-01-09T01:32:33.402Z,4.80
2019-01-09T01:35:17.852Z,4.80
2019-01-09T01:38:02.581Z,4.50
2019-01-09T01:40:47.219Z,4.40
2019-01-09T01:43:32.028Z,4.30
2019-01-09T01:46:17.157Z,4.20
2019-01-09T01:49:02.469Z,4.30
2019-01-09T01:51:56.466Z,4.10
2019-01-09T01:54:50.868Z,4.20
2019-01-09T01:57:36.596Z,4.30
2019-01-09T02:00:21.651Z,4.30
2019-01-09T02:03:15.784Z,4.30
2019-01-09T02:06:09.536Z,4.30
2019-01-09T02:08:54.805Z,4.20
2019-01-09T02:11:49.171Z,4.20
2019-01-09T02:14:42.548Z,4.30
2019-01-09T02:17:27.324Z,4.30
2019-01-09T02:20:12.218Z,4.30
2019-01-09T02:22:57.210Z,4.30
2019-01-09T02:25:51.417Z,4.20
2019-01-09T02:28:45.416Z,4.20
2019-01-09T02:31:39.334Z,4.20
2019-01-09T02:34:23.686Z,4.30
2019-01-09T02:37:08.031Z,4.30
2019-01-09T02:40:01.690Z,4.30
2019-01-09T02:42:57.978Z,4.30
2019-01-09T02:45:51.568Z,4.40
2019-01-09T02:48:36.751Z,4.30
2019-01-09T02:51:30.713Z,4.30
2019-01-09T02:54:24.914Z,4.40
2019-01-09T02:57:18.594Z,4.50
2019-01-09T03:00:03.646Z,4.40
2019-01-09T03:02:57.825Z,4.40
2019-01-09T03:05:51.633Z,4.40
2019-01-09T03:08:36.101Z,4.30
2019-01-09T03:11:20.721Z,4.30
2019-01-09T03:14:05.029Z,4.30
2019-01-09T03:16:49.794Z,4.30
2019-01-09T03:19:34.248Z,4.20
2019-01-09T03:22:28.548Z,4.20
2019-01-09T03:25:21.992Z,4.20
2019-01-09T03:28:07.165Z,4.20
2019-01-09T03:31:01.520Z,4.20
2019-01-09T03:33:46.633Z,4.20
2019-01-09T03:36:32.904Z,4.10
2019-01-09T03:39:18.059Z,4.10
2019-01-09T03:42:05.565Z,4.10
2019-01-09T03:44:59.519Z,4.10
2019-01-09T03:47:52.922Z,3.90
2019-01-09T03:50:37.724Z,3.70
2019-01-09T03:53:22.821Z,3.60
2019-01-09T03:56:08.004Z,3.60
2019-01-09T03:59:01.714Z,3.60
2019-01-09T04:01:46.939Z,3.60
2019-01-09T04:04:40.593Z,3.60
2019-01-09T04:07:24.098Z,3.60
2019-01-09T04:10:18.403Z,3.60
2019-01-09T04:13:12.218Z,3.70
2019-01-09T04:16:05.991Z,3.70
2019-01-09T04:18:50.831Z,3.70
2019-01-09T04:21:35.473Z,3.70
2019-01-09T04:24:20.365Z,3.60
2019-01-09T04:27:05.425Z,3.60
2019-01-09T04:29:59.510Z,3.60
2019-01-09T04:32:45.206Z,3.70
2019-01-09T04:35:29.854Z,3.70
2019-01-09T04:38:14.973Z,3.80
2019-01-09T04:40:59.729Z,3.90
2019-01-09T04:43:44.461Z,3.90
2019-01-09T04:46:29.708Z,4.00
2019-01-09T04:49:14.553Z,4.00
2019-01-09T04:51:59.625Z,4.00
2019-01-09T04:54:53.686Z,4.10
2019-01-09T04:57:47.762Z,4.10
2019-01-09T05:00:41.961Z,4.10
2019-01-09T05:03:36.134Z,4.00
2019-01-09T05:06:29.711Z,4.00
2019-01-09T05:09:15.277Z,4.00
2019-01-09T05:11:59.907Z,4.10
2019-01-09T05:14:53.212Z,4.10
2019-01-09T05:17:38.116Z,4.20
2019-01-09T05:20:21.898Z,4.20
2019-01-09T05:23:15.791Z,4.10
2019-01-09T05:26:09.670Z,4.20
2019-01-09T05:29:03.948Z,4.20
2019-01-09T05:31:57.956Z,4.20
2019-01-09T05:34:52.265Z,4.20
2019-01-09T05:37:46.040Z,4.10
2019-01-09T05:40:39.550Z,4.20
2019-01-09T05:43:24.709Z,4.10
2019-01-09T05:46:09.621Z,4.00
2019-01-09T05:48:54.970Z,4.10
2019-01-09T05:51:49.097Z,4.10
2019-01-09T05:54:45.149Z,4.10
2019-01-09T05:57:29.682Z,4.10
2019-01-09T06:00:23.537Z,4.20
2019-01-09T06:03:19.705Z,4.30
2019-01-09T06:06:04.865Z,4.30
2019-01-09T06:08:49.751Z,4.30
2019-01-09T06:11:35.283Z,4.30
2019-01-09T06:14:29.226Z,4.20
2019-01-09T06:17:23.577Z,4.20
2019-01-09T06:20:20.634Z,4.10
2019-01-09T06:23:05.293Z,4.10
2019-01-09T06:25:50.394Z,4.10
2019-01-09T06:28:45.185Z,4.00
2019-01-09T06:31:30.525Z,3.80
2019-01-09T06:34:15.950Z,3.80
2019-01-09T06:37:09.838Z,3.60
2019-01-09T06:39:55.560Z,3.60
2019-01-09T06:42:40.250Z,3.60
2019-01-09T06:45:25.501Z,3.60
2019-01-09T06:48:10.148Z,3.60
2019-01-09T06:50:55.365Z,3.60
2019-01-09T06:53:39.723Z,3.60
2019-01-09T06:56:25.496Z,3.50
2019-01-09T06:59:10.310Z,3.50
2019-01-09T07:01:55.221Z,3.50
2019-01-09T07:04:40.966Z,3.50
2019-01-09T07:07:36.142Z,3.50
2019-01-09T07:10:21.310Z,3.50
2019-01-09T07:13:06.801Z,3.50
2019-01-09T07:15:59.982Z,3.50
2019-01-09T07:18:45.194Z,3.50
2019-01-09T07:21:45.544Z,3.50
2019-01-09T07:24:26.309Z,3.40
2019-01-09T07:27:11.777Z,3.50
2019-01-09T07:29:56.905Z,3.60
2019-01-09T07:32:50.533Z,3.70
2019-01-09T07:35:36.117Z,3.80
2019-01-09T07:38:29.500Z,3.80
2019-01-09T07:41:14.021Z,3.80
2019-01-09T07:43:59.158Z,3.80
2019-01-09T07:46:44.129Z,3.80
2019-01-09T07:49:28.845Z,3.80
2019-01-09T07:52:13.880Z,3.70
2019-01-09T07:55:09.154Z,3.70
2019-01-09T07:57:54.457Z,3.70
2019-01-09T08:00:48.594Z,3.80
2019-01-09T08:03:44.569Z,3.90
2019-01-09T08:06:29.529Z,4.00
2019-01-09T08:09:14.651Z,4.10
2019-01-09T08:11:59.974Z,4.10
2019-01-09T08:14:53.825Z,4.10
2019-01-09T08:17:38.694Z,4.10
2019-01-09T08:20:23.973Z,4.10
2019-01-09T08:23:17.586Z,4.00
2019-01-09T08:26:02.789Z,4.00
2019-01-09T08:28:59.109Z,4.00
2019-01-09T08:31:44.261Z,4.00
2019-01-09T08:34:29.657Z,3.90
2019-01-09T08:37:23.629Z,3.80
2019-01-09T08:40:17.862Z,3.80
2019-01-09T08:43:11.787Z,3.70
2019-01-09T08:46:05.898Z,3.70
2019-01-09T08:49:01.954Z,3.60
2019-01-09T08:51:46.806Z,3.70
2019-01-09T08:54:31.912Z,3.60
2019-01-09T08:57:17.321Z,3.50
2019-01-09T09:00:01.953Z,3.60
2019-01-09T09:02:47.311Z,3.60
2019-01-09T09:05:40.878Z,3.70
2019-01-09T09:08:25.837Z,3.80
2019-01-09T09:11:19.937Z,4.00
2019-01-09T09:14:14.157Z,4.00
2019-01-09T09:17:08.508Z,4.00
2019-01-09T09:20:02.177Z,4.10
2019-01-09T09:22:48.378Z,3.90
2019-01-09T09:25:33.192Z,3.90
2019-01-09T09:28:18.021Z,3.90
2019-01-09T09:31:03.471Z,4.00
2019-01-09T09:33:48.806Z,4.10
2019-01-09T09:36:34.227Z,4.20
2019-01-09T09:39:28.161Z,4.30
2019-01-09T09:42:13.281Z,4.40
2019-01-09T09:45:06.713Z,4.50
2019-01-09T09:47:52.012Z,4.70
2019-01-09T09:50:46.361Z,4.70
2019-01-09T09:53:39.964Z,4.70
2019-01-09T09:56:25.013Z,4.70
2019-01-09T09:59:19.045Z,4.70
2019-01-09T10:02:12.930Z,4.70
2019-01-09T10:04:57.917Z,4.80
2019-01-09T10:07:52.152Z,4.90
2019-01-09T10:10:45.557Z,5.00
2019-01-09T10:13:30.962Z,5.10
2019-01-09T10:16:24.627Z,5.10
2019-01-09T10:19:09.633Z,5.10
2019-01-09T10:22:03.260Z,5.20
2019-01-09T10:24:48.405Z,5.30
2019-01-09T10:27:33.150Z,5.30
2019-01-09T10:30:18.466Z,5.30
2019-01-09T10:33:12.321Z,5.30
2019-01-09T10:36:06.169Z,5.30
2019-01-09T10:38:51.208Z,5.20
2019-01-09T10:41:45.028Z,5.20
2019-01-09T10:44:30.049Z,5.00
2019-01-09T10:47:15.561Z,5.10
2019-01-09T10:50:09.094Z,5.10
2019-01-09T10:52:54.068Z,5.00
2019-01-09T10:55:48.669Z,5.00
2019-01-09T10:58:33.662Z,5.00
2019-01-09T11:01:18.410Z,5.00
2019-01-09T11:04:03.199Z,5.00
2019-01-09T11:06:47.975Z,4.90
2019-01-09T11:09:32.446Z,4.90
2019-01-09T11:12:25.992Z,5.00
2019-01-09T11:15:10.994Z,5.10
2019-01-09T11:17:56.155Z,5.10
2019-01-09T11:20:49.933Z,5.00
2019-01-09T11:23:44.241Z,5.10
2019-01-09T11:26:38.222Z,5.20
2019-01-09T11:29:32.627Z,5.20
2019-01-09T11:32:17.453Z,5.10
2019-01-09T11:35:02.586Z,5.00
2019-01-09T11:37:48.064Z,5.00
2019-01-09T11:40:42.449Z,4.90
2019-01-09T11:43:36.301Z,4.80
2019-01-09T11:46:30.169Z,4.70
2019-01-09T11:49:15.310Z,4.80
2019-01-09T11:52:09.294Z,4.80
2019-01-09T11:54:55.410Z,4.80
2019-01-09T11:57:40.494Z,4.70
2019-01-09T12:00:35.142Z,4.70
2019-01-09T12:03:20.490Z,4.80
2019-01-09T12:06:05.349Z,4.70
2019-01-09T12:08:50.237Z,4.70
2019-01-09T12:11:34.940Z,4.80
2019-01-09T12:14:19.962Z,4.90
2019-01-09T12:17:04.934Z,4.90
2019-01-09T12:19:59.301Z,5.10
2019-01-09T12:22:53.250Z,5.30
2019-01-09T12:25:47.249Z,5.40
2019-01-09T12:28:41.807Z,5.40
2019-01-09T12:31:26.974Z,5.50
2019-01-09T12:34:12.119Z,5.70
2019-01-09T12:36:56.965Z,5.80
2019-01-09T12:39:41.925Z,5.80
2019-01-09T12:42:27.602Z,5.90
2019-01-09T12:45:13.061Z,5.90
2019-01-09T12:47:57.670Z,6.00
2019-01-09T12:50:42.391Z,6.00
2019-01-09T12:53:33.735Z,6.00
2019-01-09T12:56:22.785Z,6.00
2019-01-09T12:59:07.689Z,5.80
2019-01-09T13:01:52.435Z,5.70
2019-01-09T13:04:37.073Z,5.40
2019-01-09T13:07:22.293Z,5.30
2019-01-09T13:10:07.450Z,5.20
2019-01-09T13:13:01.269Z,5.10
2019-01-09T13:15:46.265Z,5.00
2019-01-09T13:18:40.266Z,5.00
2019-01-09T13:21:24.920Z,5.10
2019-01-09T13:24:10.040Z,5.10
2019-01-09T13:27:04.377Z,5.10
2019-01-09T13:29:57.956Z,5.10
2019-01-09T13:32:43.500Z,5.10
2019-01-09T13:35:36.706Z,5.10
2019-01-09T13:38:21.741Z,5.00
2019-01-09T13:41:06.598Z,5.00
2019-01-09T13:43:51.948Z,5.10
2019-01-09T13:46:45.621Z,4.90
2019-01-09T13:49:39.490Z,4.90
2019-01-09T13:52:24.605Z,4.80
2019-01-09T13:55:18.822Z,4.80
2019-01-09T13:58:12.511Z,4.90
2019-01-09T14:00:57.225Z,5.00
2019-01-09T14:03:42.603Z,5.10
2019-01-09T14:06:36.192Z,4.90
2019-01-09T14:09:21.509Z,4.80
2019-01-09T14:12:15.067Z,4.90
2019-01-09T14:14:59.850Z,4.90
2019-01-09T14:17:44.780Z,4.80
2019-01-09T14:20:38.657Z,4.70
2019-01-09T14:23:24.088Z,4.50
2019-01-09T14:26:09.186Z,4.60
2019-01-09T14:28:55.162Z,4.60
2019-01-09T14:31:48.750Z,4.50
2019-01-09T14:34:34.052Z,4.50
2019-01-09T14:37:29.091Z,4.50
2019-01-09T14:40:14.089Z,4.50
2019-01-09T14:42:59.176Z,4.40
2019-01-09T14:45:53.454Z,4.50
2019-01-09T14:48:47.098Z,4.60
2019-01-09T14:51:43.182Z,4.70
2019-01-09T14:54:36.686Z,4.70
2019-01-09T14:57:21.928Z,4.70
2019-01-09T15:00:15.332Z,4.60
2019-01-09T15:03:00.346Z,4.60
2019-01-09T15:05:45.492Z,4.50
2019-01-09T15:08:39.412Z,4.50
2019-01-09T15:11:24.153Z,4.60
2019-01-09T15:14:09.074Z,4.60
2019-01-09T15:17:02.905Z,4.60
2019-01-09T15:19:47.629Z,4.70
2019-01-09T15:22:32.179Z,4.60
2019-01-09T15:25:17.326Z,4.60
2019-01-09T15:28:02.128Z,4.50
2019-01-09T15:30:47.412Z,4.60
2019-01-09T15:33:41.452Z,4.60
2019-01-09T15:36:35.403Z,4.60
2019-01-09T15:39:29.265Z,4.60
2019-01-09T15:42:13.865Z,4.40
2019-01-09T15:44:59.059Z,4.30
2019-01-09T15:47:52.751Z,4.20
2019-01-09T15:50:37.582Z,4.30
2019-01-09T15:53:22.911Z,4.40
2019-01-09T15:56:16.908Z,4.40
2019-01-09T15:59:10.890Z,4.40
2019-01-09T16:02:04.600Z,4.40
2019-01-09T16:04:49.761Z,4.40
2019-01-09T16:07:34.585Z,4.40
2019-01-09T16:10:19.658Z,4.40
2019-01-09T16:13:13.385Z,4.40
2019-01-09T16:15:58.895Z,4.40
2019-01-09T16:18:44.463Z,4.30
2019-01-09T16:21:29.732Z,4.20
2019-01-09T16:24:23.359Z,4.20
2019-01-09T16:27:08.222Z,4.20
2019-01-09T16:29:53.237Z,4.20
2019-01-09T16:32:47.132Z,4.20
2019-01-09T16:35:31.838Z,4.20
2019-01-09T16:38:17.062Z,4.20
2019-01-09T16:41:10.990Z,4.10
2019-01-09T16:44:04.709Z,4.00
2019-01-09T16:46:49.353Z,3.90
2019-01-09T16:49:32.733Z,3.80
2019-01-09T16:55:52.476Z,3.60
2019-01-09T16:58:46.134Z,3.60
2019-01-09T17:01:30.889Z,3.60
2019-01-09T17:04:15.993Z,3.70
2019-01-09T17:07:10.073Z,3.80
2019-01-09T17:10:04.252Z,3.80
2019-01-09T17:12:58.382Z,3.80
2019-01-09T17:15:52.330Z,3.60
2019-01-09T17:18:47.153Z,3.70
2019-01-09T17:21:32.137Z,3.70
2019-01-09T17:24:17.586Z,3.60
2019-01-09T17:27:11.837Z,3.50
2019-01-09T17:30:06.069Z,3.50
2019-01-09T17:32:59.458Z,3.60
2019-01-09T17:35:44.712Z,3.60
2019-01-09T17:38:38.617Z,3.50
2019-01-09T17:41:32.619Z,3.50
2019-01-09T17:44:17.586Z,3.50
2019-01-09T17:47:02.813Z,3.60
2019-01-09T17:49:47.939Z,3.60
2019-01-09T17:52:33.150Z,3.60
2019-01-09T17:55:18.034Z,3.60
2019-01-09T17:58:03.134Z,3.50
2019-01-09T18:00:47.949Z,3.70
2019-01-09T18:03:33.066Z,3.70
2019-01-09T18:06:27.109Z,3.80
2019-01-09T18:09:20.773Z,3.90
2019-01-09T18:12:05.546Z,3.90
2019-01-09T18:14:50.759Z,3.80
2019-01-09T18:17:44.571Z,3.80
2019-01-09T18:20:29.577Z,3.90
2019-01-09T18:23:24.191Z,3.80
2019-01-09T18:26:09.081Z,3.80
2019-01-09T18:28:54.638Z,3.80
2019-01-09T18:31:40.214Z,3.80
2019-01-09T18:34:25.371Z,3.80
2019-01-09T18:37:10.447Z,3.80
2019-01-09T18:39:54.909Z,3.60
2019-01-09T18:42:39.838Z,3.70
2019-01-09T18:48:53.546Z,3.80
2019-01-09T18:51:47.566Z,3.80
2019-01-09T18:54:41.341Z,3.70
2019-01-09T18:57:35.797Z,3.70
2019-01-09T19:00:30.018Z,3.80
2019-01-09T19:03:23.490Z,3.80
2019-01-09T19:06:08.145Z,3.80
2019-01-09T19:08:52.869Z,3.80
2019-01-09T19:11:37.717Z,3.70
2019-01-09T19:14:22.979Z,3.70
2019-01-09T19:17:17.009Z,3.70
2019-01-09T19:20:12.575Z,3.70
2019-01-09T19:23:07.009Z,3.60
2019-01-09T19:26:01.547Z,3.60
2019-01-09T19:28:47.025Z,3.50
2019-01-09T19:31:42.636Z,3.40
2019-01-09T19:34:36.900Z,3.40
2019-01-09T19:37:30.943Z,3.50
2019-01-09T19:40:25.088Z,3.50
2019-01-09T19:43:18.985Z,3.40
2019-01-09T19:46:04.053Z,3.40
2019-01-09T19:48:58.617Z,3.40
2019-01-09T19:51:52.179Z,3.40
2019-01-09T19:54:37.757Z,3.50
2019-01-09T19:57:23.774Z,3.40
2019-01-09T20:00:18.182Z,3.40
2019-01-09T20:03:04.117Z,3.40
2019-01-09T20:05:59.073Z,3.30
2019-01-09T20:08:44.529Z,3.30
2019-01-09T20:11:39.295Z,3.30
2019-01-09T20:14:24.761Z,3.30
2019-01-09T20:17:09.619Z,3.40
2019-01-09T20:19:54.861Z,3.40
2019-01-09T20:22:50.019Z,3.40
2019-01-09T20:25:35.604Z,3.40
2019-01-09T20:28:21.704Z,3.40
2019-01-09T20:31:07.371Z,3.40
2019-01-09T20:34:01.041Z,3.50
2019-01-09T20:36:55.111Z,3.40
2019-01-09T20:39:49.519Z,3.30
2019-01-09T20:42:44.156Z,3.30
2019-01-09T20:45:29.225Z,3.20
2019-01-09T20:48:13.933Z,3.20
2019-01-09T20:50:58.911Z,3.20
2019-01-09T20:53:44.489Z,3.20
2019-01-09T20:56:30.674Z,3.20
2019-01-09T20:59:24.628Z,3.20
2019-01-09T21:02:09.452Z,3.20
2019-01-09T21:05:03.879Z,3.30
2019-01-09T21:07:58.390Z,3.30
2019-01-09T21:10:43.956Z,3.30
2019-01-09T21:13:29.712Z,3.40
2019-01-09T21:16:25.788Z,3.40
2019-01-09T21:19:10.699Z,3.30
2019-01-09T21:21:55.510Z,3.30
2019-01-09T21:24:40.296Z,3.30
2019-01-09T21:27:25.253Z,3.40
2019-01-09T21:30:19.370Z,3.40
2019-01-09T21:33:13.268Z,3.30
2019-01-09T21:35:58.641Z,3.40
2019-01-09T21:38:44.100Z,3.30
2019-01-09T21:41:29.177Z,3.30
2019-01-09T21:44:16.090Z,3.30
2019-01-09T21:47:01.671Z,3.40
2019-01-09T21:49:47.022Z,3.50
2019-01-09T21:52:31.809Z,3.50
2019-01-09T21:55:16.874Z,3.50
2019-01-09T21:58:00.121Z,3.50
2019-01-09T22:00:54.360Z,3.60
2019-01-09T22:03:48.129Z,3.70
2019-01-09T22:06:42.625Z,3.70
2019-01-09T22:09:27.373Z,3.70
2019-01-09T22:12:12.406Z,3.70
2019-01-09T22:14:56.829Z,3.60
2019-01-09T22:17:50.727Z,3.60
2019-01-09T22:20:44.442Z,3.60
2019-01-09T22:23:29.776Z,3.50
2019-01-09T22:26:23.457Z,3.30
2019-01-09T22:29:09.166Z,3.20
2019-01-09T22:31:54.130Z,3.10
2019-01-09T22:34:39.102Z,3.10
2019-01-09T22:37:23.793Z,3.10
2019-01-09T22:40:08.777Z,3.10
2019-01-09T22:42:54.069Z,3.10
2019-01-09T22:45:49.045Z,3.10
2019-01-09T22:48:36.254Z,3.10
2019-01-09T22:51:29.937Z,3.00
2019-01-09T22:54:14.993Z,3.10
2019-01-09T22:57:09.013Z,3.00
2019-01-09T23:00:02.809Z,3.00
2019-01-09T23:02:49.549Z,3.00
2019-01-09T23:05:43.633Z,3.00
2019-01-09T23:08:28.985Z,3.00
2019-01-09T23:11:23.107Z,3.00
2019-01-09T23:14:17.277Z,2.90
2019-01-09T23:17:10.561Z,2.80
2019-01-09T23:19:55.377Z,2.70
2019-01-09T23:22:40.417Z,2.80
2019-01-09T23:25:25.837Z,2.80
2019-01-09T23:28:10.613Z,2.70
2019-01-09T23:30:55.254Z,2.70
2019-01-09T23:33:48.613Z,2.70
2019-01-09T23:36:33.274Z,2.70
2019-01-09T23:39:17.982Z,2.60
2019-01-09T23:42:03.114Z,2.60
2019-01-09T23:44:48.137Z,2.50
2019-01-09T23:47:42.660Z,2.50
2019-01-09T23:50:36.533Z,2.50
2019-01-09T23:53:32.317Z,2.50
2019-01-09T23:56:26.242Z,2.50
2019-01-09T23:59:19.933Z,2.50
